createdAt,value
2023-01-11T00:02:09.091Z,90.76
2023-01-11T00:04:35.560Z,90.41
2023-01-11T00:07:02.003Z,90.12
2023-01-11T00:09:28.396Z,90.13
2023-01-11T00:11:55.239Z,90.19
2023-01-11T00:14:21.750Z,90.44
2023-01-11T00:16:48.130Z,90.34
2023-01-11T00:19:14.616Z,90.42
2023-01-11T00:21:41.026Z,90.05
2023-01-11T00:24:07.559Z,90.95
2023-01-11T00:26:34.007Z,90.71
2023-01-11T00:29:00.418Z,90.84
2023-01-11T00:31:27.011Z,90.14
2023-01-11T00:33:53.512Z,90.42
2023-01-11T00:36:19.939Z,90.17
2023-01-11T00:38:53.684Z,89.92
2023-01-11T00:41:42.188Z,90.48
2023-01-11T00:44:30.409Z,90.19
2023-01-11T00:47:16.111Z,90.11
2023-01-11T00:49:43.143Z,90.19
2023-01-11T00:52:10.121Z,90.23
2023-01-11T00:54:40.860Z,90.65
2023-01-11T00:57:07.905Z,91.17
2023-01-11T00:59:35.260Z,90.47
2023-01-11T01:02:02.087Z,90.22
2023-01-11T01:04:28.520Z,89.95
2023-01-11T01:06:55.010Z,89.94
2023-01-11T01:09:21.503Z,90.32
2023-01-11T01:11:47.932Z,90.52
2023-01-11T01:14:30.576Z,90.04
2023-01-11T01:17:02.532Z,90.70
2023-01-11T01:19:31.503Z,90.40
2023-01-11T01:21:59.705Z,90.22
2023-01-11T01:24:28.772Z,89.67
2023-01-11T01:26:56.382Z,89.72
2023-01-11T01:29:22.871Z,90.28
2023-01-11T01:31:49.275Z,89.43
2023-01-11T01:34:15.866Z,89.96
2023-01-11T01:36:42.532Z,89.89
2023-01-11T01:39:11.460Z,89.51
2023-01-11T01:41:37.923Z,89.73
2023-01-11T01:44:43.245Z,89.05
2023-01-11T01:47:10.382Z,88.89
2023-01-11T01:49:37.507Z,89.18
2023-01-11T01:52:04.231Z,88.55
2023-01-11T01:54:35.824Z,88.83
2023-01-11T01:57:09.288Z,88.10
2023-01-11T01:59:36.026Z,88.28
2023-01-11T02:02:02.529Z,87.46
2023-01-11T02:04:30.795Z,87.98
2023-01-11T02:07:01.937Z,88.15
2023-01-11T02:09:38.777Z,87.72
2023-01-11T02:12:06.787Z,88.41
2023-01-11T02:14:35.586Z,87.76
2023-01-11T02:17:23.458Z,88.23
2023-01-11T02:20:20.242Z,87.88
2023-01-11T02:22:55.579Z,88.06
2023-01-11T02:25:58.978Z,87.70
2023-01-11T02:28:38.949Z,87.69
2023-01-11T02:31:34.417Z,87.09
2023-01-11T02:34:24.579Z,87.40
2023-01-11T02:37:15.788Z,86.32
2023-01-11T02:39:58.631Z,87.12
2023-01-11T02:43:09.785Z,86.94
2023-01-11T02:45:58.308Z,86.59
2023-01-11T02:48:43.530Z,87.15
2023-01-11T02:51:15.807Z,86.05
2023-01-11T02:54:01.376Z,87.22
2023-01-11T02:56:31.972Z,86.36
2023-01-11T02:59:00.939Z,87.33
2023-01-11T03:01:27.513Z,86.21
2023-01-11T03:03:54.612Z,86.70
2023-01-11T03:06:26.152Z,86.75
2023-01-11T03:08:52.504Z,86.02
2023-01-11T03:12:11.623Z,85.59
2023-01-11T03:14:49.603Z,86.00
2023-01-11T03:17:58.808Z,86.31
2023-01-11T03:20:36.707Z,85.93
2023-01-11T04:51:54.333Z,87.13
2023-01-11T04:54:20.771Z,87.06
2023-01-11T04:56:47.160Z,86.95
2023-01-11T04:59:13.986Z,86.76
2023-01-11T05:01:40.388Z,86.57
2023-01-11T05:04:07.036Z,86.71
2023-01-11T05:06:33.707Z,86.83
2023-01-11T05:09:00.163Z,86.44
2023-01-11T05:11:26.568Z,86.45
2023-01-11T05:13:53.038Z,86.41
2023-01-11T05:16:24.308Z,86.33
2023-01-11T05:18:55.906Z,86.40
2023-01-11T05:21:25.550Z,86.55
2023-01-11T05:23:53.366Z,86.30
2023-01-11T05:26:23.463Z,86.75
2023-01-11T05:28:51.218Z,86.37
2023-01-11T05:31:18.650Z,86.45
2023-01-11T05:33:45.328Z,86.86
2023-01-11T05:36:14.364Z,88.05
2023-01-11T05:38:40.818Z,89.30
2023-01-11T05:41:09.788Z,90.07
2023-01-11T05:43:56.487Z,89.80
2023-01-11T05:46:23.312Z,90.90
2023-01-11T05:48:50.197Z,90.77
2023-01-11T05:51:17.068Z,89.98
2023-01-11T05:53:43.913Z,89.97
2023-01-11T05:56:10.314Z,90.28
2023-01-11T05:58:36.762Z,89.76
2023-01-11T06:01:03.834Z,89.47
2023-01-11T06:03:30.247Z,89.49
2023-01-11T06:05:59.196Z,89.92
2023-01-11T06:08:26.146Z,89.20
2023-01-11T06:10:57.015Z,89.30
2023-01-11T06:13:27.571Z,89.90
2023-01-11T06:15:58.068Z,89.31
2023-01-11T06:18:24.477Z,88.76
2023-01-11T06:20:51.868Z,89.06
2023-01-11T06:23:18.484Z,88.95
2023-01-11T06:25:45.463Z,89.07
2023-01-11T06:28:12.541Z,88.52
2023-01-11T06:30:39.246Z,88.79
2023-01-11T06:33:08.662Z,88.25
2023-01-11T06:35:40.427Z,88.50
2023-01-11T06:38:08.798Z,88.87
2023-01-11T06:40:35.700Z,88.38
2023-01-11T06:43:02.202Z,88.51
2023-01-11T06:45:28.739Z,89.05
2023-01-11T06:47:55.189Z,88.64
2023-01-11T06:50:21.682Z,88.65
2023-01-11T06:52:55.560Z,88.94
2023-01-11T06:55:23.774Z,88.61
2023-01-11T06:57:50.379Z,91.35
2023-01-11T07:00:17.742Z,93.46
2023-01-11T07:02:45.448Z,91.00
2023-01-11T07:05:12.793Z,91.77
2023-01-11T07:07:40.177Z,89.82
2023-01-11T07:10:09.158Z,89.57
2023-01-11T07:12:36.032Z,88.59
2023-01-11T07:15:06.561Z,91.08
2023-01-11T07:17:33.463Z,87.42
2023-01-11T07:20:00.696Z,88.19
2023-01-11T07:22:28.286Z,88.33
2023-01-11T07:24:54.882Z,88.69
2023-01-11T07:27:21.259Z,88.68
2023-01-11T07:29:47.660Z,88.66
2023-01-11T07:32:14.380Z,88.72
2023-01-11T07:34:40.808Z,88.05
2023-01-11T07:37:09.558Z,88.55
2023-01-11T07:39:55.138Z,88.75
2023-01-11T07:42:40.157Z,88.42
2023-01-11T07:45:07.109Z,88.22
2023-01-11T07:47:33.499Z,88.70
2023-01-11T07:49:59.901Z,88.83
2023-01-11T07:52:26.285Z,88.92
2023-01-11T07:54:52.705Z,88.16
2023-01-11T07:57:19.124Z,90.04
2023-01-11T07:59:45.584Z,87.92
2023-01-11T08:02:12.119Z,88.51
2023-01-11T08:04:38.531Z,88.09
2023-01-11T08:07:05.019Z,88.51
2023-01-11T08:09:31.429Z,88.82
2023-01-11T08:12:16.541Z,89.24
2023-01-11T08:14:43.001Z,89.03
2023-01-11T08:17:13.409Z,89.60
2023-01-11T08:19:40.307Z,89.47
2023-01-11T08:22:06.846Z,89.59
2023-01-11T08:24:34.749Z,90.04
2023-01-11T08:27:02.320Z,90.45
2023-01-11T08:29:28.732Z,91.39
2023-01-11T08:31:55.378Z,93.36
2023-01-11T08:34:21.823Z,97.36
2023-01-11T08:36:48.215Z,97.46
2023-01-11T08:39:14.729Z,97.21
2023-01-11T08:41:41.146Z,98.57
2023-01-11T08:44:09.290Z,100.00
2023-01-11T08:46:37.871Z,100.00
2023-01-11T08:49:11.095Z,100.00
2023-01-11T08:51:41.130Z,100.00
2023-01-11T08:54:11.694Z,100.00
2023-01-11T08:56:38.349Z,100.00
2023-01-11T08:59:06.189Z,100.00
2023-01-11T09:01:33.564Z,100.00
2023-01-11T09:04:00.027Z,100.00
2023-01-11T09:06:26.463Z,100.00
2023-01-11T09:08:52.938Z,100.00
2023-01-11T09:11:37.991Z,100.00
2023-01-11T09:14:04.477Z,100.00
2023-01-11T09:16:31.317Z,100.00
2023-01-11T09:18:57.751Z,100.00
2023-01-11T09:21:24.357Z,100.00
2023-01-11T09:23:50.811Z,100.00
2023-01-11T09:26:17.242Z,100.00
2023-01-11T09:28:43.682Z,100.00
2023-01-11T09:31:10.153Z,100.00
2023-01-11T09:33:38.422Z,100.00
2023-01-11T09:36:05.501Z,100.00
2023-01-11T09:38:33.917Z,100.00
2023-01-11T09:41:23.150Z,100.00
2023-01-11T09:44:01.677Z,100.00
2023-01-11T09:46:29.170Z,100.00
2023-01-11T09:48:59.525Z,100.00
2023-01-11T09:51:37.437Z,100.00
2023-01-11T09:54:07.722Z,100.00
2023-01-11T09:56:43.814Z,100.00
2023-01-11T09:59:20.737Z,100.00
2023-01-11T10:02:01.591Z,100.00
2023-01-11T10:04:47.422Z,100.00
2023-01-11T10:07:24.932Z,100.00
2023-01-11T10:18:37.061Z,100.00
2023-01-11T10:19:38.678Z,100.00
2023-01-11T10:22:32.607Z,100.00
2023-01-11T10:25:18.696Z,100.00
2023-01-11T10:28:10.836Z,100.00
2023-01-11T10:31:03.497Z,100.00
2023-01-11T10:34:06.245Z,100.00
2023-01-11T10:36:59.421Z,100.00
2023-01-11T10:39:43.497Z,100.00
2023-01-11T10:42:25.165Z,100.00
2023-01-11T10:45:02.580Z,100.00
2023-01-11T10:47:39.118Z,100.00
2023-01-11T10:50:19.091Z,100.00
2023-01-11T10:52:52.029Z,100.00
2023-01-11T10:55:28.544Z,100.00
2023-01-11T10:58:07.018Z,100.00
2023-01-11T11:00:41.757Z,100.00
2023-01-11T11:03:24.444Z,100.00
2023-01-11T11:06:06.197Z,100.00
2023-01-11T11:08:51.195Z,100.00
2023-01-11T11:11:36.746Z,100.00
2023-01-11T11:14:20.215Z,100.00
2023-01-11T11:17:25.757Z,100.00
2023-01-11T11:19:53.207Z,100.00
2023-01-11T11:22:20.928Z,100.00
2023-01-11T11:24:51.945Z,100.00
2023-01-11T11:27:25.382Z,100.00
2023-01-11T11:29:54.731Z,100.00
2023-01-11T11:32:26.780Z,100.00
2023-01-11T11:34:53.874Z,100.00
2023-01-11T11:37:31.511Z,100.00
2023-01-11T11:39:57.997Z,100.00
2023-01-11T11:42:24.734Z,100.00
2023-01-11T11:45:09.239Z,100.00
2023-01-11T11:47:36.714Z,100.00
2023-01-11T11:50:43.058Z,100.00
2023-01-11T11:53:25.261Z,100.00
2023-01-11T11:55:53.207Z,100.00
2023-01-11T11:58:23.878Z,100.00
2023-01-11T12:00:52.166Z,100.00
2023-01-11T12:03:23.526Z,100.00
2023-01-11T12:05:55.471Z,100.00
2023-01-11T12:08:24.579Z,100.00
2023-01-11T12:10:55.201Z,100.00
2023-01-11T12:13:27.748Z,100.00
2023-01-11T12:16:02.979Z,100.00
2023-01-11T12:18:37.136Z,100.00
2023-01-11T12:21:30.152Z,100.00
2023-01-11T12:24:18.365Z,100.00
2023-01-11T12:26:54.584Z,100.00
2023-01-11T12:29:35.878Z,100.00
2023-01-11T12:32:11.663Z,100.00
2023-01-11T12:35:05.850Z,100.00
2023-01-11T12:38:04.538Z,100.00
2023-01-11T12:41:01.535Z,100.00
2023-01-11T12:43:41.521Z,100.00
2023-01-11T12:46:40.725Z,100.00
2023-01-11T12:49:19.449Z,100.00
2023-01-11T12:51:51.630Z,100.00
2023-01-11T12:55:01.714Z,100.00
2023-01-11T12:57:52.073Z,100.00
2023-01-11T13:00:31.950Z,100.00
2023-01-11T13:03:33.333Z,100.00
2023-01-11T13:06:20.962Z,100.00
2023-01-11T13:09:16.821Z,100.00
2023-01-11T13:12:03.925Z,100.00
2023-01-11T13:14:52.243Z,100.00
2023-01-11T13:17:25.436Z,100.00
2023-01-11T13:20:04.076Z,100.00
2023-01-11T13:22:36.392Z,100.00
2023-01-11T13:25:12.412Z,100.00
2023-01-11T13:27:40.049Z,100.00
2023-01-11T13:30:12.446Z,100.00
2023-01-11T13:32:42.892Z,100.00
2023-01-11T13:35:19.123Z,100.00
2023-01-11T13:37:53.268Z,100.00
2023-01-11T13:40:24.255Z,100.00
2023-01-11T13:42:52.833Z,100.00
2023-01-11T13:45:30.157Z,100.00
2023-01-11T13:48:05.767Z,100.00
2023-01-11T13:50:41.937Z,100.00
2023-01-11T13:53:22.505Z,100.00
2023-01-11T13:55:57.477Z,100.00
2023-01-11T13:58:30.287Z,100.00
2023-01-11T14:01:08.155Z,100.00
2023-01-11T14:04:00.505Z,100.00
2023-01-11T14:06:53.128Z,100.00
2023-01-11T14:09:42.643Z,100.00
2023-01-11T14:12:29.721Z,100.00
2023-01-11T14:15:17.497Z,100.00
2023-01-11T14:18:11.189Z,100.00
2023-01-11T14:20:53.797Z,100.00
2023-01-11T14:23:25.165Z,100.00
2023-01-11T14:26:12.098Z,100.00
2023-01-11T14:28:51.531Z,100.00
2023-01-11T14:31:26.995Z,100.00
2023-01-11T14:34:20.620Z,100.00
2023-01-11T14:37:14.371Z,100.00
2023-01-11T14:40:01.142Z,100.00
2023-01-11T14:42:38.096Z,100.00
2023-01-11T14:45:24.025Z,100.00
2023-01-11T14:47:54.670Z,100.00
2023-01-11T14:50:41.598Z,100.00
2023-01-11T14:53:15.501Z,100.00
2023-01-11T14:55:45.187Z,100.00
2023-01-11T14:58:32.331Z,100.00
2023-01-11T15:00:58.671Z,100.00
2023-01-11T15:03:34.995Z,100.00
2023-01-11T15:06:10.494Z,100.00
2023-01-11T15:08:47.687Z,100.00
2023-01-11T15:11:30.013Z,100.00
2023-01-11T15:13:59.335Z,100.00
2023-01-11T15:16:47.571Z,100.00
2023-01-11T15:19:29.236Z,100.00
2023-01-11T15:21:56.869Z,100.00
2023-01-11T15:24:29.959Z,100.00
2023-01-11T15:26:59.578Z,100.00
2023-01-11T15:29:29.410Z,100.00
2023-01-11T15:32:01.866Z,100.00
2023-01-11T15:34:41.339Z,100.00
2023-01-11T15:37:18.960Z,100.00
2023-01-11T15:39:57.180Z,100.00
2023-01-11T15:42:36.503Z,100.00
2023-01-11T15:45:32.138Z,100.00
2023-01-11T15:48:18.498Z,100.00
2023-01-11T15:51:17.463Z,100.00
2023-01-11T15:53:55.982Z,100.00
2023-01-11T15:56:43.745Z,100.00
2023-01-11T15:59:58.175Z,100.00
2023-01-11T16:02:47.186Z,100.00
2023-01-11T16:05:21.945Z,100.00
2023-01-11T16:08:10.461Z,100.00
2023-01-11T16:11:01.189Z,100.00
2023-01-11T16:13:53.614Z,100.00
2023-01-11T16:16:24.404Z,100.00
2023-01-11T16:18:58.042Z,100.00
2023-01-11T16:21:38.773Z,100.00
2023-01-11T16:24:14.974Z,100.00
2023-01-11T16:26:42.056Z,100.00
2023-01-11T16:29:24.704Z,100.00
2023-01-11T16:32:32.782Z,100.00
2023-01-11T16:35:01.266Z,100.00
2023-01-11T16:37:33.644Z,100.00
2023-01-11T16:40:08.411Z,100.00
2023-01-11T16:42:41.193Z,100.00
2023-01-11T16:45:13.574Z,100.00
2023-01-11T16:47:40.056Z,100.00
2023-01-11T16:50:15.357Z,100.00
2023-01-11T16:52:53.709Z,100.00
2023-01-11T16:55:24.425Z,100.00
2023-01-11T16:57:58.334Z,100.00
2023-01-11T17:00:35.960Z,100.00
2023-01-11T17:03:15.967Z,100.00
2023-01-11T17:05:42.418Z,100.00
2023-01-11T17:08:50.290Z,100.00
2023-01-11T17:11:39.618Z,100.00
2023-01-11T17:14:39.927Z,100.00
2023-01-11T17:17:09.350Z,100.00
2023-01-11T17:19:42.983Z,100.00
2023-01-11T17:22:43.677Z,100.00
2023-01-11T17:25:44.881Z,100.00
2023-01-11T17:28:18.421Z,100.00
2023-01-11T17:30:47.859Z,100.00
2023-01-11T17:33:31.519Z,100.00
2023-01-11T17:35:58.996Z,100.00
2023-01-11T17:38:27.924Z,100.00
2023-01-11T17:40:58.526Z,100.00
2023-01-11T17:43:48.108Z,100.00
2023-01-11T17:46:19.279Z,100.00
2023-01-11T17:48:57.111Z,100.00
2023-01-11T17:51:29.461Z,100.00
2023-01-11T17:53:55.891Z,100.00
2023-01-11T17:56:37.957Z,100.00
2023-01-11T17:59:18.529Z,100.00
2023-01-11T18:01:57.627Z,100.00
2023-01-11T18:04:25.874Z,100.00
2023-01-11T18:06:55.065Z,100.00
2023-01-11T18:09:30.521Z,100.00
2023-01-11T18:12:13.751Z,100.00
2023-01-11T18:14:48.608Z,100.00
2023-01-11T18:17:33.077Z,100.00
2023-01-11T18:20:00.115Z,100.00
2023-01-11T18:22:40.582Z,100.00
2023-01-11T18:25:20.139Z,100.00
2023-01-11T18:27:46.967Z,100.00
2023-01-11T18:30:31.727Z,100.00
2023-01-11T18:33:02.173Z,100.00
2023-01-11T18:35:29.426Z,100.00
2023-01-11T18:37:55.978Z,100.00
2023-01-11T18:40:22.609Z,100.00
2023-01-11T18:42:52.357Z,100.00
2023-01-11T18:45:18.848Z,100.00
2023-01-11T18:47:45.253Z,100.00
2023-01-11T18:50:14.493Z,100.00
2023-01-11T18:52:40.900Z,100.00
2023-01-11T18:55:10.977Z,100.00
2023-01-11T18:57:37.446Z,100.00
2023-01-11T19:00:04.114Z,100.00
2023-01-11T19:02:42.394Z,100.00
2023-01-11T19:05:15.299Z,100.00
2023-01-11T19:07:42.208Z,100.00
2023-01-11T19:10:10.740Z,100.00
2023-01-11T19:12:37.151Z,100.00
2023-01-11T19:15:03.812Z,100.00
2023-01-11T19:17:31.453Z,100.00
2023-01-11T19:19:57.871Z,100.00
2023-01-11T19:22:26.468Z,100.00
2023-01-11T19:24:53.920Z,100.00
2023-01-11T19:27:21.034Z,100.00
2023-01-11T19:29:47.445Z,100.00
2023-01-11T19:32:15.758Z,100.00
2023-01-11T19:34:42.730Z,100.00
2023-01-11T19:37:09.114Z,100.00
2023-01-11T19:39:36.089Z,100.00
2023-01-11T19:42:03.051Z,100.00
2023-01-11T19:44:32.311Z,100.00
2023-01-11T19:47:10.300Z,100.00
2023-01-11T19:49:38.138Z,100.00
2023-01-11T19:52:05.532Z,100.00
2023-01-11T19:54:31.956Z,100.00
2023-01-11T19:56:58.373Z,100.00
2023-01-11T19:59:24.768Z,100.00
2023-01-11T20:01:51.203Z,100.00
2023-01-11T20:04:17.773Z,100.00
2023-01-11T20:06:52.079Z,100.00
2023-01-11T20:09:19.476Z,100.00
2023-01-11T20:11:46.600Z,100.00
2023-01-11T20:14:13.008Z,100.00
2023-01-11T20:16:39.421Z,100.00
2023-01-11T20:19:05.888Z,100.00
2023-01-11T20:21:34.220Z,100.00
2023-01-11T20:24:01.920Z,100.00
2023-01-11T20:26:30.546Z,100.00
2023-01-11T20:28:58.029Z,100.00
2023-01-11T20:31:28.041Z,100.00
2023-01-11T20:33:55.986Z,100.00
2023-01-11T20:36:23.099Z,100.00
2023-01-11T20:38:49.931Z,100.00
2023-01-11T20:41:37.477Z,100.00
2023-01-11T20:44:05.794Z,100.00
2023-01-11T20:46:33.256Z,100.00
2023-01-11T20:49:00.188Z,100.00
2023-01-11T20:51:27.026Z,100.00
2023-01-11T20:53:53.469Z,100.00
2023-01-11T20:56:20.020Z,100.00
2023-01-11T20:58:48.113Z,100.00
2023-01-11T21:01:27.215Z,100.00
2023-01-11T21:04:04.951Z,100.00
2023-01-11T21:06:32.912Z,100.00
2023-01-11T21:09:01.075Z,100.00
2023-01-11T21:11:28.643Z,100.00
2023-01-11T21:13:56.094Z,100.00
2023-01-11T21:16:29.362Z,100.00
2023-01-11T21:19:00.552Z,100.00
2023-01-11T21:21:29.581Z,100.00
2023-01-11T21:23:58.426Z,100.00
2023-01-11T21:26:26.281Z,100.00
2023-01-11T21:28:55.636Z,100.00
2023-01-11T21:31:22.815Z,100.00
2023-01-11T21:33:49.964Z,100.00
2023-01-11T21:36:19.006Z,100.00
2023-01-11T21:38:45.488Z,100.00
2023-01-11T21:41:18.082Z,100.00
2023-01-11T21:43:45.319Z,100.00
2023-01-11T21:46:12.750Z,100.00
2023-01-11T21:48:39.592Z,100.00
2023-01-11T21:51:09.921Z,100.00
2023-01-11T21:53:36.683Z,100.00
2023-01-11T21:56:04.945Z,100.00
2023-01-11T21:58:31.393Z,100.00
2023-01-11T22:00:58.043Z,100.00
2023-01-11T22:03:27.045Z,100.00
2023-01-11T22:05:54.584Z,100.00
2023-01-11T22:08:21.227Z,100.00
2023-01-11T22:11:01.115Z,100.00
2023-01-11T22:13:32.150Z,100.00
2023-01-11T22:16:06.020Z,100.00
2023-01-11T22:18:33.671Z,100.00
2023-01-11T22:21:07.013Z,100.00
2023-01-11T22:23:33.661Z,100.00
2023-01-11T22:26:34.676Z,100.00
2023-01-11T22:29:14.579Z,100.00
2023-01-11T22:31:50.757Z,100.00
2023-01-11T22:34:18.245Z,100.00
2023-01-11T22:36:45.312Z,100.00
2023-01-11T22:39:12.848Z,100.00
2023-01-11T22:41:40.620Z,100.00
2023-01-11T22:44:08.280Z,100.00
2023-01-11T22:46:34.755Z,100.00
2023-01-11T22:49:01.254Z,100.00
2023-01-11T22:51:27.792Z,100.00
2023-01-11T22:53:55.742Z,100.00
2023-01-11T22:56:25.526Z,100.00
2023-01-11T22:58:55.972Z,100.00
2023-01-11T23:01:26.843Z,100.00
2023-01-11T23:03:54.511Z,100.00
2023-01-11T23:06:26.930Z,100.00
2023-01-11T23:08:53.966Z,100.00
2023-01-11T23:11:45.337Z,100.00
2023-01-11T23:14:14.368Z,100.00
2023-01-11T23:16:41.451Z,100.00
2023-01-11T23:19:08.926Z,100.00
2023-01-11T23:21:36.156Z,100.00
2023-01-11T23:24:03.679Z,100.00
2023-01-11T23:26:30.917Z,100.00
2023-01-11T23:28:57.455Z,100.00
2023-01-11T23:31:25.672Z,100.00
2023-01-11T23:33:56.932Z,100.00
2023-01-11T23:36:26.947Z,100.00
2023-01-11T23:38:56.290Z,100.00
2023-01-11T23:41:42.004Z,100.00
2023-01-11T23:44:11.377Z,100.00
2023-01-11T23:46:57.423Z,100.00
2023-01-11T23:49:26.697Z,100.00
2023-01-11T23:51:54.027Z,100.00
2023-01-11T23:54:20.942Z,100.00
2023-01-11T23:56:47.626Z,100.00
2023-01-11T23:59:14.821Z,100.00
